Time,TemperatureF,DewpointF,PressureIn,WindDirection,WindDirectionDegrees,WindSpeedMPH,WindSpeedGustMPH,Humidity,HourlyPrecipIn,Conditions,Clouds,dailyrainin,SoftwareType,DateUTC
2013-09-09 00:09:00,70.2,68.0,29.98,WSW,249,1.0,-999.0,91,-99.99,,,0.00,weatherlink.com 1.10,2013-09-09 04:09:00,
2013-09-09 00:24:00,70.4,67.0,29.99,SW,231,0.0,-999.0,90,-99.99,,,0.00,weatherlink.com 1.10,2013-09-09 04:24:00,
2013-09-09 00:39:00,70.8,68.0,29.98,West,262,1.0,-999.0,91,-99.99,,,0.00,weatherlink.com 1.10,2013-09-09 04:39:00,
2013-09-09 00:54:00,70.5,68.0,29.99,WSW,254,0.0,-999.0,90,-99.99,,,0.00,weatherlink.com 1.10,2013-09-09 04:54:00,
2013-09-09 01:09:00,70.6,68.0,29.99,WSW,245,0.0,-999.0,90,-99.99,,,0.00,weatherlink.com 1.10,2013-09-09 05:09:00,
2013-09-09 01:24:00,70.5,68.0,29.99,WSW,237,1.0,-999.0,91,-99.99,,,0.00,weatherlink.com 1.10,2013-09-09 05:24:00,
2013-09-09 01:39:00,70.3,68.0,29.99,SW,229,1.0,-999.0,91,-99.99,,,0.00,weatherlink.com 1.10,2013-09-09 05:39:00,
2013-09-09 01:54:00,70.2,68.0,29.99,WSW,247,0.0,-999.0,91,-99.99,,,0.00,weatherlink.com 1.10,2013-09-09 05:54:00,
2013-09-09 02:09:00,70.7,68.0,29.99,WSW,245,0.0,-999.0,91,-99.99,,,0.00,weatherlink.com 1.10,2013-09-09 06:09:00,
2013-09-09 02:24:00,70.6,68.0,29.99,WSW,256,3.0,-999.0,91,-99.99,,,0.00,weatherlink.com 1.10,2013-09-09 06:24:00,
2013-09-09 02:39:00,69.7,67.0,29.99,SW,229,0.0,-999.0,92,-99.99,,,0.00,weatherlink.com 1.10,2013-09-09 06:39:00,
2013-09-09 02:54:00,69.4,67.0,30.00,West,266,2.0,-999.0,93,-99.99,,,0.00,weatherlink.com 1.10,2013-09-09 06:54:00,
2013-09-09 03:09:00,70.4,68.0,29.99,SW,235,0.0,-999.0,91,-99.99,,,0.00,weatherlink.com 1.10,2013-09-09 07:09:00,
2013-09-09 03:24:00,71.2,68.0,29.99,SW,232,0.0,-999.0,90,-99.99,,,0.00,weatherlink.com 1.10,2013-09-09 07:24:00,
2013-09-09 03:39:00,72.0,68.0,29.99,SW,232,0.0,-999.0,88,-99.99,,,0.00,weatherlink.com 1.10,2013-09-09 07:39:00,
2013-09-09 03:54:00,71.9,69.0,30.00,SW,232,0.0,-999.0,89,-99.99,,,0.00,weatherlink.com 1.10,2013-09-09 07:54:00,
2013-09-09 04:09:00,71.3,68.0,30.00,WSW,238,0.0,-999.0,90,-99.99,,,0.00,weatherlink.com 1.10,2013-09-09 08:09:00,
2013-09-09 04:24:00,71.7,68.0,30.00,WSW,238,0.0,-999.0,89,-99.99,,,0.00,weatherlink.com 1.10,2013-09-09 08:24:00,
2013-09-09 04:39:00,72.3,69.0,30.00,WSW,238,0.0,-999.0,88,-99.99,,,0.00,weatherlink.com 1.10,2013-09-09 08:39:00,
2013-09-09 04:54:00,72.2,69.0,30.00,SW,220,0.0,-999.0,88,-99.99,,,0.00,weatherlink.com 1.10,2013-09-09 08:54:00,
2013-09-09 05:09:00,72.0,69.0,30.00,SW,220,0.0,-999.0,89,-99.99,,,0.00,weatherlink.com 1.10,2013-09-09 09:09:00,
2013-09-09 05:24:00,71.9,69.0,30.00,SW,220,0.0,-999.0,89,-99.99,,,0.00,weatherlink.com 1.10,2013-09-09 09:24:00,
2013-09-09 05:39:00,71.7,68.0,30.01,SW,220,0.0,-999.0,89,-99.99,,,0.00,weatherlink.com 1.10,2013-09-09 09:39:00,
2013-09-09 05:54:00,71.6,68.0,30.01,SW,220,0.0,-999.0,89,-99.99,,,0.00,weatherlink.com 1.10,2013-09-09 09:54:00,
2013-09-09 06:09:00,71.7,68.0,30.01,SW,220,0.0,-999.0,89,-99.99,,,0.00,weatherlink.com 1.10,2013-09-09 10:09:00,
2013-09-09 06:24:00,71.4,68.0,30.01,SW,222,0.0,-999.0,89,-99.99,,,0.00,weatherlink.com 1.10,2013-09-09 10:24:00,
2013-09-09 06:39:00,71.2,68.0,30.01,SW,222,0.0,-999.0,89,-99.99,,,0.00,weatherlink.com 1.10,2013-09-09 10:39:00,
2013-09-09 06:54:00,70.9,68.0,30.01,SW,222,0.0,-999.0,90,-99.99,,,0.00,weatherlink.com 1.10,2013-09-09 10:54:00,
2013-09-09 07:09:00,70.6,68.0,30.02,SW,230,0.0,-999.0,91,-99.99,,,0.00,weatherlink.com 1.10,2013-09-09 11:09:00,
2013-09-09 07:24:00,70.5,68.0,30.02,SW,230,0.0,-999.0,91,-99.99,,,0.00,weatherlink.com 1.10,2013-09-09 11:24:00,
2013-09-09 07:39:00,70.8,68.0,30.02,SW,230,0.0,-999.0,91,-99.99,,,0.00,weatherlink.com 1.10,2013-09-09 11:39:00,
2013-09-09 07:54:00,71.2,68.0,30.02,SW,230,0.0,-999.0,90,-99.99,,,0.00,weatherlink.com 1.10,2013-09-09 11:54:00,
2013-09-09 08:09:00,71.1,68.0,30.02,SW,230,0.0,-999.0,90,-99.99,,,0.00,weatherlink.com 1.10,2013-09-09 12:09:00,
2013-09-09 08:24:00,71.3,68.0,30.03,SW,230,0.0,-999.0,90,-99.99,,,0.00,weatherlink.com 1.10,2013-09-09 12:24:00,
2013-09-09 08:39:00,71.4,68.0,30.03,SW,230,0.0,-999.0,90,-99.99,,,0.00,weatherlink.com 1.10,2013-09-09 12:39:00,
2013-09-09 08:54:00,71.4,69.0,30.03,SW,230,0.0,-999.0,92,-99.99,,,0.00,weatherlink.com 1.10,2013-09-09 12:54:00,
2013-09-09 09:09:00,71.5,69.0,30.04,SW,230,0.0,-999.0,92,-99.99,,,0.00,weatherlink.com 1.10,2013-09-09 13:09:00,
2013-09-09 09:24:00,71.3,69.0,30.04,SW,230,0.0,-999.0,93,-99.99,,,0.00,weatherlink.com 1.10,2013-09-09 13:24:00,
2013-09-09 09:39:00,71.0,69.0,30.05,SW,230,0.0,-999.0,93,-99.99,,,0.00,weatherlink.com 1.10,2013-09-09 13:39:00,
2013-09-09 09:54:00,70.8,69.0,30.05,SW,230,0.0,-999.0,94,-99.99,,,0.00,weatherlink.com 1.10,2013-09-09 13:54:00,
2013-09-09 10:09:00,71.4,69.0,30.06,SW,230,0.0,-999.0,93,-99.99,,,0.00,weatherlink.com 1.10,2013-09-09 14:09:00,
2013-09-09 10:24:00,72.9,70.0,30.06,SW,230,0.0,-999.0,91,-99.99,,,0.00,weatherlink.com 1.10,2013-09-09 14:24:00,
2013-09-09 10:39:00,74.1,70.0,30.07,SW,230,0.0,-999.0,87,-99.99,,,0.00,weatherlink.com 1.10,2013-09-09 14:39:00,
2013-09-09 10:54:00,74.7,70.0,30.07,SW,230,0.0,-999.0,85,-99.99,,,0.00,weatherlink.com 1.10,2013-09-09 14:54:00,
2013-09-09 11:09:00,74.8,71.0,30.07,SW,230,0.0,-999.0,89,-99.99,,,0.00,weatherlink.com 1.10,2013-09-09 15:09:00,
2013-09-09 11:24:00,75.4,71.0,30.08,SE,140,0.0,-999.0,86,-99.99,,,0.00,weatherlink.com 1.10,2013-09-09 15:24:00,
2013-09-09 11:39:00,75.9,71.0,30.07,SE,140,0.0,-999.0,84,-99.99,,,0.00,weatherlink.com 1.10,2013-09-09 15:39:00,
2013-09-09 11:54:00,76.7,71.0,30.07,SE,140,0.0,-999.0,83,-99.99,,,0.00,weatherlink.com 1.10,2013-09-09 15:54:00,
2013-09-09 12:09:00,77.6,72.0,30.07,WSW,241,0.0,-999.0,82,-99.99,,,0.00,weatherlink.com 1.10,2013-09-09 16:09:00,
2013-09-09 12:24:00,78.1,72.0,30.07,West,265,0.0,-999.0,81,-99.99,,,0.00,weatherlink.com 1.10,2013-09-09 16:24:00,
2013-09-09 12:39:00,78.9,72.0,30.07,West,265,0.0,-999.0,79,-99.99,,,0.00,weatherlink.com 1.10,2013-09-09 16:39:00,
2013-09-09 12:54:00,79.4,72.0,30.06,West,262,0.0,-999.0,77,-99.99,,,0.00,weatherlink.com 1.10,2013-09-09 16:54:00,
2013-09-09 13:09:00,80.2,73.0,30.06,West,268,0.0,-999.0,78,-99.99,,,0.00,weatherlink.com 1.10,2013-09-09 17:09:00,
2013-09-09 13:24:00,79.3,73.0,30.06,WNW,282,0.0,-999.0,80,-99.99,,,0.00,weatherlink.com 1.10,2013-09-09 17:24:00,
2013-09-09 13:39:00,78.3,71.0,30.06,WNW,282,0.0,-999.0,78,-99.99,,,0.00,weatherlink.com 1.10,2013-09-09 17:39:00,
2013-09-09 13:54:00,78.3,73.0,30.06,WNW,287,0.0,-999.0,83,-99.99,,,0.00,weatherlink.com 1.10,2013-09-09 17:54:00,
2013-09-09 14:09:00,81.4,74.0,30.05,WNW,287,0.0,-999.0,78,-99.99,,,0.00,weatherlink.com 1.10,2013-09-09 18:09:00,
2013-09-09 14:24:00,83.4,74.0,30.05,SE,129,0.0,-999.0,74,-99.99,,,0.00,weatherlink.com 1.10,2013-09-09 18:24:00,
2013-09-09 14:39:00,82.5,71.0,30.05,SSE,162,0.0,-999.0,69,-99.99,,,0.00,weatherlink.com 1.10,2013-09-09 18:39:00,
2013-09-09 14:54:00,82.0,73.0,30.04,SSW,208,0.0,-999.0,74,-99.99,,,0.00,weatherlink.com 1.10,2013-09-09 18:54:00,
2013-09-09 15:09:00,80.2,72.0,30.05,WNW,283,0.0,-999.0,76,-99.99,,,0.00,weatherlink.com 1.10,2013-09-09 19:09:00,
2013-09-09 15:24:00,78.7,73.0,30.04,West,266,0.0,-999.0,82,-99.99,,,0.00,weatherlink.com 1.10,2013-09-09 19:24:00,
2013-09-09 15:39:00,78.5,73.0,30.04,West,266,0.0,-999.0,83,-99.99,,,0.00,weatherlink.com 1.10,2013-09-09 19:39:00,
2013-09-09 15:54:00,80.6,73.0,30.04,West,266,0.0,-999.0,78,-99.99,,,0.00,weatherlink.com 1.10,2013-09-09 19:54:00,
2013-09-09 16:09:00,82.2,73.0,30.04,WNW,301,0.0,-999.0,73,-99.99,,,0.00,weatherlink.com 1.10,2013-09-09 20:09:00,
2013-09-09 16:24:00,82.2,72.0,30.03,WSW,251,0.0,-999.0,70,-99.99,,,0.00,weatherlink.com 1.10,2013-09-09 20:24:00,
2013-09-09 16:39:00,81.4,73.0,30.03,West,262,0.0,-999.0,76,-99.99,,,0.00,weatherlink.com 1.10,2013-09-09 20:39:00,
2013-09-09 16:54:00,80.6,72.0,30.03,SW,218,0.0,-999.0,74,-99.99,,,0.00,weatherlink.com 1.10,2013-09-09 20:54:00,
2013-09-09 17:09:00,80.2,72.0,30.02,SW,218,0.0,-999.0,77,-99.99,,,0.00,weatherlink.com 1.10,2013-09-09 21:09:00,
2013-09-09 17:24:00,80.8,74.0,30.02,SW,218,0.0,-999.0,80,-99.99,,,0.00,weatherlink.com 1.10,2013-09-09 21:24:00,
2013-09-09 17:39:00,79.9,73.0,30.02,SW,222,0.0,-999.0,78,-99.99,,,0.00,weatherlink.com 1.10,2013-09-09 21:39:00,
2013-09-09 17:54:00,80.2,73.0,30.02,SW,222,0.0,-999.0,78,-99.99,,,0.00,weatherlink.com 1.10,2013-09-09 21:54:00,
2013-09-09 18:09:00,79.5,74.0,30.02,SW,220,0.0,-999.0,82,-99.99,,,0.00,weatherlink.com 1.10,2013-09-09 22:09:00,
2013-09-09 18:24:00,79.2,73.0,30.03,SW,228,0.0,-999.0,82,-99.99,,,0.00,weatherlink.com 1.10,2013-09-09 22:24:00,
2013-09-09 18:39:00,78.9,73.0,30.02,SW,229,0.0,-999.0,82,-99.99,,,0.00,weatherlink.com 1.10,2013-09-09 22:39:00,
2013-09-09 18:54:00,77.7,72.0,30.03,SW,229,0.0,-999.0,82,-99.99,,,0.00,weatherlink.com 1.10,2013-09-09 22:54:00,
2013-09-09 19:09:00,77.6,72.0,30.03,SW,229,0.0,-999.0,82,-99.99,,,0.00,weatherlink.com 1.10,2013-09-09 23:09:00,
2013-09-09 19:24:00,77.2,71.0,30.03,SW,229,0.0,-999.0,82,-99.99,,,0.00,weatherlink.com 1.10,2013-09-09 23:24:00,
2013-09-09 19:39:00,77.2,71.0,30.03,SW,229,0.0,-999.0,82,-99.99,,,0.00,weatherlink.com 1.10,2013-09-09 23:39:00,
2013-09-09 19:54:00,77.1,71.0,30.03,SW,229,0.0,-999.0,80,-99.99,,,0.00,weatherlink.com 1.10,2013-09-09 23:54:00,
2013-09-09 20:09:00,76.9,71.0,30.03,SW,229,0.0,-999.0,81,-99.99,,,0.00,weatherlink.com 1.10,2013-09-10 00:09:00,
2013-09-09 20:24:00,76.7,71.0,30.04,SW,229,0.0,-999.0,81,-99.99,,,0.00,weatherlink.com 1.10,2013-09-10 00:24:00,
2013-09-09 20:39:00,75.8,70.0,30.04,SW,229,0.0,-999.0,83,-99.99,,,0.00,weatherlink.com 1.10,2013-09-10 00:39:00,
2013-09-09 20:54:00,75.3,70.0,30.04,SW,229,0.0,-999.0,84,-99.99,,,0.00,weatherlink.com 1.10,2013-09-10 00:54:00,
2013-09-09 21:09:00,75.1,70.0,30.05,SW,229,0.0,-999.0,85,-99.99,,,0.00,weatherlink.com 1.10,2013-09-10 01:09:00,
2013-09-09 21:24:00,74.9,71.0,30.05,SW,229,0.0,-999.0,86,-99.99,,,0.00,weatherlink.com 1.10,2013-09-10 01:24:00,
2013-09-09 21:39:00,74.9,71.0,30.05,SW,229,0.0,-999.0,86,-99.99,,,0.00,weatherlink.com 1.10,2013-09-10 01:39:00,
2013-09-09 21:54:00,75.2,71.0,30.06,SW,229,0.0,-999.0,85,-99.99,,,0.00,weatherlink.com 1.10,2013-09-10 01:54:00,
2013-09-09 22:09:00,75.4,71.0,30.07,SW,229,0.0,-999.0,85,-99.99,,,0.00,weatherlink.com 1.10,2013-09-10 02:09:00,
2013-09-09 22:24:00,74.7,70.0,30.07,SW,229,0.0,-999.0,86,-99.99,,,0.00,weatherlink.com 1.10,2013-09-10 02:24:00,
2013-09-09 22:39:00,74.7,70.0,30.08,SW,229,0.0,-999.0,86,-99.99,,,0.00,weatherlink.com 1.10,2013-09-10 02:39:00,
2013-09-09 22:54:00,74.5,70.0,30.08,NNW,341,0.0,-999.0,86,-99.99,,,0.00,weatherlink.com 1.10,2013-09-10 02:54:00,
2013-09-09 23:09:00,74.4,70.0,30.08,NNW,341,0.0,-999.0,85,-99.99,,,0.00,weatherlink.com 1.10,2013-09-10 03:09:00,
2013-09-09 23:24:00,74.3,70.0,30.09,NNW,341,0.0,-999.0,85,-99.99,,,0.00,weatherlink.com 1.10,2013-09-10 03:24:00,
2013-09-09 23:39:00,74.3,69.0,30.09,NNW,341,0.0,-999.0,84,-99.99,,,0.00,weatherlink.com 1.10,2013-09-10 03:39:00,
2013-09-09 23:54:00,74.4,69.0,30.09,NNW,341,0.0,-999.0,83,-99.99,,,0.00,weatherlink.com 1.10,2013-09-10 03:54:00,